CheckWX is a tool to help pilots better visualize weather data.  It is not intended as a substitute for an official pre-flight weather briefing.

00:31:04 UTC

KCCR METAR
Buchanan Field Airport
Concord, California, USA
Current

38 mins ago

KCCR 162353Z 29012G25KT 10SM SCT040 24/07 A2995 RMK AO2 SLP127 T02440067 10250 20211 58002
Observed
Sep-16 @ 23:53 UTC
Wind
  • 290° at 12 KTS
  • Gusting to 25 KTS
Visibility
10 SM
Flight Rules
VFR
Cloud Levels
  • Scattered at 4,000' AGL
Temperature
24°C / 75°F
Dewpoint
C / 45°F
Humidity
34%
Altimeter
29.95" Hg
Pressure
1014.22 hPa
Previous

2 hours ago

KCCR 162253Z 28013G17KT 10SM CLR 25/07 A2995 RMK AO2 SLP127 T02500067
Observed
Sep-16 @ 22:53 UTC
Wind
  • 280° at 13 KTS
  • Gusting to 17 KTS
Visibility
10 SM
Flight Rules
VFR
Cloud Levels
  • Clear skies
Temperature
25°C / 77°F
Dewpoint
C / 45°F
Humidity
32%
Altimeter
29.95" Hg
Pressure
1014.22 hPa
Previous

3 hours ago

KCCR 162153Z 25007G19KT 230V300 10SM CLR 24/08 A2996 RMK AO2 SLP132 T02440083
Observed
Sep-16 @ 21:53 UTC
Wind
  • 250° at 7 KTS
  • Gusting to 19 KTS
Visibility
10 SM
Flight Rules
VFR
Cloud Levels
  • Clear skies
Temperature
24°C / 75°F
Dewpoint
C / 46°F
Humidity
36%
Altimeter
29.96" Hg
Pressure
1014.52 hPa